sensor_id;sensor_type;location;lat;lon;timestamp;P1;durP1;ratioP1;P2;durP2;ratioP2
12511;SDS011;6321;53.798;10.382;2023-07-09T00:00:01;4.93;;;4.13;;
12511;SDS011;6321;53.798;10.382;2023-07-09T00:02:27;5.27;;;4.37;;
12511;SDS011;6321;53.798;10.382;2023-07-09T00:04:53;6.27;;;4.00;;
12511;SDS011;6321;53.798;10.382;2023-07-09T00:07:28;4.97;;;4.10;;
12511;SDS011;6321;53.798;10.382;2023-07-09T00:09:55;5.93;;;4.30;;
12511;SDS011;6321;53.798;10.382;2023-07-09T00:12:21;4.70;;;4.20;;
12511;SDS011;6321;53.798;10.382;2023-07-09T00:14:47;6.67;;;4.20;;
12511;SDS011;6321;53.798;10.382;2023-07-09T00:17:21;6.23;;;4.30;;
12511;SDS011;6321;53.798;10.382;2023-07-09T00:19:48;5.03;;;4.17;;
12511;SDS011;6321;53.798;10.382;2023-07-09T00:22:15;7.83;;;4.50;;
12511;SDS011;6321;53.798;10.382;2023-07-09T00:24:42;5.00;;;4.37;;
12511;SDS011;6321;53.798;10.382;2023-07-09T00:27:09;4.93;;;4.10;;
12511;SDS011;6321;53.798;10.382;2023-07-09T00:29:35;6.17;;;4.20;;
12511;SDS011;6321;53.798;10.382;2023-07-09T00:32:01;4.50;;;3.83;;
12511;SDS011;6321;53.798;10.382;2023-07-09T00:34:27;6.63;;;4.00;;
12511;SDS011;6321;53.798;10.382;2023-07-09T00:36:52;7.50;;;4.07;;
12511;SDS011;6321;53.798;10.382;2023-07-09T00:39:19;8.53;;;4.37;;
12511;SDS011;6321;53.798;10.382;2023-07-09T00:41:46;5.17;;;4.20;;
12511;SDS011;6321;53.798;10.382;2023-07-09T00:44:30;5.67;;;4.10;;
12511;SDS011;6321;53.798;10.382;2023-07-09T00:49:30;6.17;;;4.30;;
12511;SDS011;6321;53.798;10.382;2023-07-09T00:51:57;5.60;;;4.33;;
12511;SDS011;6321;53.798;10.382;2023-07-09T00:54:37;5.33;;;4.57;;
12511;SDS011;6321;53.798;10.382;2023-07-09T00:57:08;5.00;;;4.50;;
12511;SDS011;6321;53.798;10.382;2023-07-09T00:59:36;5.47;;;3.87;;
12511;SDS011;6321;53.798;10.382;2023-07-09T01:02:03;5.63;;;4.07;;
12511;SDS011;6321;53.798;10.382;2023-07-09T01:04:30;5.70;;;4.53;;
12511;SDS011;6321;53.798;10.382;2023-07-09T01:06:56;9.50;;;4.80;;
12511;SDS011;6321;53.798;10.382;2023-07-09T01:09:23;4.67;;;4.23;;
12511;SDS011;6321;53.798;10.382;2023-07-09T01:11:49;6.10;;;4.70;;
12511;SDS011;6321;53.798;10.382;2023-07-09T01:14:16;5.85;;;5.30;;
12511;SDS011;6321;53.798;10.382;2023-07-09T01:16:44;5.37;;;4.73;;
12511;SDS011;6321;53.798;10.382;2023-07-09T01:19:12;6.00;;;4.67;;
12511;SDS011;6321;53.798;10.382;2023-07-09T01:21:41;4.57;;;4.17;;
12511;SDS011;6321;53.798;10.382;2023-07-09T01:24:14;5.07;;;4.40;;
12511;SDS011;6321;53.798;10.382;2023-07-09T01:26:40;6.20;;;4.53;;
12511;SDS011;6321;53.798;10.382;2023-07-09T01:29:06;4.50;;;4.10;;
12511;SDS011;6321;53.798;10.382;2023-07-09T01:31:32;4.67;;;4.27;;
12511;SDS011;6321;53.798;10.382;2023-07-09T01:33:58;4.77;;;4.27;;
12511;SDS011;6321;53.798;10.382;2023-07-09T01:36:24;5.00;;;4.23;;
12511;SDS011;6321;53.798;10.382;2023-07-09T01:38:51;5.10;;;3.90;;
12511;SDS011;6321;53.798;10.382;2023-07-09T01:41:18;6.63;;;4.20;;
12511;SDS011;6321;53.798;10.382;2023-07-09T01:43:45;8.13;;;4.40;;
12511;SDS011;6321;53.798;10.382;2023-07-09T01:46:11;5.50;;;4.17;;
12511;SDS011;6321;53.798;10.382;2023-07-09T01:48:38;5.30;;;4.80;;
12511;SDS011;6321;53.798;10.382;2023-07-09T01:51:10;5.43;;;4.57;;
12511;SDS011;6321;53.798;10.382;2023-07-09T01:53:37;7.20;;;4.40;;
12511;SDS011;6321;53.798;10.382;2023-07-09T01:56:03;4.97;;;4.50;;
12511;SDS011;6321;53.798;10.382;2023-07-09T01:58:29;5.30;;;4.23;;
12511;SDS011;6321;53.798;10.382;2023-07-09T02:00:56;4.70;;;4.20;;
12511;SDS011;6321;53.798;10.382;2023-07-09T02:03:22;5.97;;;5.03;;
12511;SDS011;6321;53.798;10.382;2023-07-09T02:05:51;4.83;;;4.30;;
12511;SDS011;6321;53.798;10.382;2023-07-09T02:08:18;4.67;;;4.10;;
12511;SDS011;6321;53.798;10.382;2023-07-09T02:10:44;4.53;;;4.10;;
12511;SDS011;6321;53.798;10.382;2023-07-09T02:13:10;6.03;;;4.37;;
12511;SDS011;6321;53.798;10.382;2023-07-09T02:15:36;4.70;;;4.20;;
12511;SDS011;6321;53.798;10.382;2023-07-09T02:18:02;4.80;;;4.27;;
12511;SDS011;6321;53.798;10.382;2023-07-09T02:20:28;5.80;;;4.40;;
12511;SDS011;6321;53.798;10.382;2023-07-09T02:22:54;6.27;;;4.33;;
12511;SDS011;6321;53.798;10.382;2023-07-09T02:25:20;4.83;;;4.17;;
12511;SDS011;6321;53.798;10.382;2023-07-09T02:27:46;7.93;;;4.00;;
12511;SDS011;6321;53.798;10.382;2023-07-09T02:30:12;6.67;;;4.57;;
12511;SDS011;6321;53.798;10.382;2023-07-09T02:32:38;6.33;;;4.33;;
12511;SDS011;6321;53.798;10.382;2023-07-09T02:35:06;5.67;;;4.93;;
12511;SDS011;6321;53.798;10.382;2023-07-09T02:37:32;6.07;;;4.77;;
12511;SDS011;6321;53.798;10.382;2023-07-09T02:39:58;7.40;;;4.50;;
12511;SDS011;6321;53.798;10.382;2023-07-09T02:42:24;5.00;;;4.50;;
12511;SDS011;6321;53.798;10.382;2023-07-09T02:44:50;5.00;;;4.33;;
12511;SDS011;6321;53.798;10.382;2023-07-09T02:47:16;8.17;;;4.60;;
12511;SDS011;6321;53.798;10.382;2023-07-09T02:49:42;7.33;;;4.03;;
12511;SDS011;6321;53.798;10.382;2023-07-09T02:52:08;8.03;;;4.90;;
12511;SDS011;6321;53.798;10.382;2023-07-09T02:54:34;5.17;;;4.43;;
12511;SDS011;6321;53.798;10.382;2023-07-09T02:57:00;5.40;;;4.60;;
12511;SDS011;6321;53.798;10.382;2023-07-09T02:59:26;5.00;;;4.50;;
12511;SDS011;6321;53.798;10.382;2023-07-09T03:01:54;7.67;;;4.57;;
12511;SDS011;6321;53.798;10.382;2023-07-09T03:04:20;4.80;;;4.40;;
12511;SDS011;6321;53.798;10.382;2023-07-09T03:06:46;5.17;;;4.67;;
12511;SDS011;6321;53.798;10.382;2023-07-09T03:09:12;7.77;;;4.33;;
12511;SDS011;6321;53.798;10.382;2023-07-09T03:11:38;6.30;;;4.60;;
12511;SDS011;6321;53.798;10.382;2023-07-09T03:14:04;5.53;;;4.97;;
12511;SDS011;6321;53.798;10.382;2023-07-09T03:16:31;9.23;;;5.27;;
12511;SDS011;6321;53.798;10.382;2023-07-09T03:18:58;6.53;;;4.73;;
12511;SDS011;6321;53.798;10.382;2023-07-09T03:21:24;8.90;;;4.67;;
12511;SDS011;6321;53.798;10.382;2023-07-09T03:23:51;5.53;;;5.03;;
12511;SDS011;6321;53.798;10.382;2023-07-09T03:26:17;7.90;;;5.57;;
12511;SDS011;6321;53.798;10.382;2023-07-09T03:28:43;6.07;;;5.30;;
12511;SDS011;6321;53.798;10.382;2023-07-09T03:31:09;7.43;;;5.33;;
12511;SDS011;6321;53.798;10.382;2023-07-09T03:33:35;7.20;;;4.83;;
12511;SDS011;6321;53.798;10.382;2023-07-09T03:36:01;8.37;;;5.47;;
12511;SDS011;6321;53.798;10.382;2023-07-09T03:38:29;6.27;;;5.63;;
12511;SDS011;6321;53.798;10.382;2023-07-09T03:40:55;7.57;;;5.33;;
12511;SDS011;6321;53.798;10.382;2023-07-09T03:43:21;6.10;;;5.47;;
12511;SDS011;6321;53.798;10.382;2023-07-09T03:45:47;5.97;;;5.00;;
12511;SDS011;6321;53.798;10.382;2023-07-09T03:48:14;6.57;;;5.07;;
12511;SDS011;6321;53.798;10.382;2023-07-09T03:50:41;5.93;;;5.37;;
12511;SDS011;6321;53.798;10.382;2023-07-09T03:53:07;7.50;;;5.30;;
12511;SDS011;6321;53.798;10.382;2023-07-09T03:55:33;5.90;;;4.63;;
12511;SDS011;6321;53.798;10.382;2023-07-09T03:57:59;6.40;;;5.40;;
12511;SDS011;6321;53.798;10.382;2023-07-09T04:00:25;5.80;;;5.23;;
12511;SDS011;6321;53.798;10.382;2023-07-09T04:02:51;5.93;;;5.27;;
12511;SDS011;6321;53.798;10.382;2023-07-09T04:05:17;8.80;;;5.40;;
12511;SDS011;6321;53.798;10.382;2023-07-09T04:07:43;5.93;;;5.33;;
12511;SDS011;6321;53.798;10.382;2023-07-09T04:10:10;6.47;;;4.90;;
12511;SDS011;6321;53.798;10.382;2023-07-09T04:12:36;8.80;;;5.57;;
12511;SDS011;6321;53.798;10.382;2023-07-09T04:15:03;7.97;;;4.87;;
12511;SDS011;6321;53.798;10.382;2023-07-09T04:17:29;5.27;;;4.77;;
12511;SDS011;6321;53.798;10.382;2023-07-09T04:19:55;8.27;;;4.70;;
12511;SDS011;6321;53.798;10.382;2023-07-09T04:22:21;6.10;;;5.07;;
12511;SDS011;6321;53.798;10.382;2023-07-09T04:24:47;5.60;;;4.67;;
12511;SDS011;6321;53.798;10.382;2023-07-09T04:27:13;5.57;;;4.17;;
12511;SDS011;6321;53.798;10.382;2023-07-09T04:29:39;5.40;;;4.57;;
12511;SDS011;6321;53.798;10.382;2023-07-09T04:32:06;7.00;;;4.80;;
12511;SDS011;6321;53.798;10.382;2023-07-09T04:34:32;6.73;;;4.63;;
12511;SDS011;6321;53.798;10.382;2023-07-09T04:36:58;6.67;;;5.00;;
12511;SDS011;6321;53.798;10.382;2023-07-09T04:39:24;5.43;;;4.83;;
12511;SDS011;6321;53.798;10.382;2023-07-09T04:41:50;5.50;;;4.73;;
12511;SDS011;6321;53.798;10.382;2023-07-09T04:44:16;5.63;;;4.30;;
12511;SDS011;6321;53.798;10.382;2023-07-09T04:46:42;5.87;;;4.43;;
12511;SDS011;6321;53.798;10.382;2023-07-09T04:49:08;9.23;;;4.63;;
12511;SDS011;6321;53.798;10.382;2023-07-09T04:51:37;6.87;;;4.80;;
12511;SDS011;6321;53.798;10.382;2023-07-09T04:54:03;6.37;;;4.43;;
12511;SDS011;6321;53.798;10.382;2023-07-09T04:56:29;4.73;;;4.20;;
12511;SDS011;6321;53.798;10.382;2023-07-09T04:58:55;7.53;;;4.73;;
12511;SDS011;6321;53.798;10.382;2023-07-09T05:01:21;5.43;;;4.50;;
12511;SDS011;6321;53.798;10.382;2023-07-09T05:03:47;4.67;;;3.93;;
12511;SDS011;6321;53.798;10.382;2023-07-09T05:06:13;6.47;;;4.40;;
12511;SDS011;6321;53.798;10.382;2023-07-09T05:08:39;5.87;;;4.40;;
12511;SDS011;6321;53.798;10.382;2023-07-09T05:11:06;4.70;;;4.20;;
12511;SDS011;6321;53.798;10.382;2023-07-09T05:13:32;6.50;;;4.37;;
12511;SDS011;6321;53.798;10.382;2023-07-09T05:15:58;4.80;;;4.30;;
12511;SDS011;6321;53.798;10.382;2023-07-09T05:18:24;7.77;;;4.07;;
12511;SDS011;6321;53.798;10.382;2023-07-09T05:20:50;4.70;;;3.87;;
12511;SDS011;6321;53.798;10.382;2023-07-09T05:23:16;4.67;;;4.20;;
12511;SDS011;6321;53.798;10.382;2023-07-09T05:25:42;5.70;;;4.30;;
12511;SDS011;6321;53.798;10.382;2023-07-09T05:28:08;5.70;;;4.30;;
12511;SDS011;6321;53.798;10.382;2023-07-09T05:30:34;7.27;;;3.97;;
12511;SDS011;6321;53.798;10.382;2023-07-09T05:33:00;5.07;;;4.57;;
12511;SDS011;6321;53.798;10.382;2023-07-09T05:35:26;6.00;;;4.73;;
12511;SDS011;6321;53.798;10.382;2023-07-09T05:37:52;4.60;;;4.20;;
12511;SDS011;6321;53.798;10.382;2023-07-09T05:40:19;5.80;;;4.10;;
12511;SDS011;6321;53.798;10.382;2023-07-09T05:42:45;6.37;;;4.20;;
12511;SDS011;6321;53.798;10.382;2023-07-09T05:45:11;4.60;;;4.20;;
12511;SDS011;6321;53.798;10.382;2023-07-09T05:47:37;4.90;;;3.70;;
12511;SDS011;6321;53.798;10.382;2023-07-09T05:50:03;4.97;;;4.27;;
12511;SDS011;6321;53.798;10.382;2023-07-09T05:52:30;4.67;;;4.13;;
12511;SDS011;6321;53.798;10.382;2023-07-09T05:54:56;6.13;;;4.57;;
12511;SDS011;6321;53.798;10.382;2023-07-09T05:57:22;6.90;;;4.43;;
12511;SDS011;6321;53.798;10.382;2023-07-09T05:59:48;5.17;;;3.80;;
12511;SDS011;6321;53.798;10.382;2023-07-09T06:02:17;4.90;;;3.67;;
12511;SDS011;6321;53.798;10.382;2023-07-09T06:04:44;4.90;;;3.67;;
12511;SDS011;6321;53.798;10.382;2023-07-09T06:07:10;5.73;;;4.07;;
12511;SDS011;6321;53.798;10.382;2023-07-09T06:09:37;4.83;;;3.73;;
12511;SDS011;6321;53.798;10.382;2023-07-09T06:12:03;6.90;;;4.00;;
12511;SDS011;6321;53.798;10.382;2023-07-09T06:14:30;6.23;;;4.20;;
12511;SDS011;6321;53.798;10.382;2023-07-09T06:16:56;6.33;;;4.13;;
12511;SDS011;6321;53.798;10.382;2023-07-09T06:19:22;4.17;;;3.27;;
12511;SDS011;6321;53.798;10.382;2023-07-09T06:21:48;6.70;;;4.00;;
12511;SDS011;6321;53.798;10.382;2023-07-09T06:24:14;7.40;;;4.13;;
12511;SDS011;6321;53.798;10.382;2023-07-09T06:26:40;4.23;;;3.83;;
12511;SDS011;6321;53.798;10.382;2023-07-09T06:29:06;4.10;;;3.50;;
12511;SDS011;6321;53.798;10.382;2023-07-09T06:31:32;4.83;;;3.73;;
12511;SDS011;6321;53.798;10.382;2023-07-09T06:33:58;7.60;;;4.00;;
12511;SDS011;6321;53.798;10.382;2023-07-09T06:36:24;3.77;;;3.47;;
12511;SDS011;6321;53.798;10.382;2023-07-09T06:38:50;3.80;;;3.40;;
12511;SDS011;6321;53.798;10.382;2023-07-09T06:41:16;5.93;;;3.50;;
12511;SDS011;6321;53.798;10.382;2023-07-09T06:43:42;4.60;;;3.90;;
12511;SDS011;6321;53.798;10.382;2023-07-09T06:46:11;3.50;;;3.20;;
12511;SDS011;6321;53.798;10.382;2023-07-09T06:48:37;4.87;;;3.87;;
12511;SDS011;6321;53.798;10.382;2023-07-09T06:51:03;6.83;;;3.40;;
12511;SDS011;6321;53.798;10.382;2023-07-09T06:53:29;4.23;;;3.60;;
12511;SDS011;6321;53.798;10.382;2023-07-09T06:55:55;6.30;;;3.57;;
12511;SDS011;6321;53.798;10.382;2023-07-09T06:58:25;3.27;;;2.97;;
12511;SDS011;6321;53.798;10.382;2023-07-09T07:00:52;3.90;;;3.30;;
12511;SDS011;6321;53.798;10.382;2023-07-09T07:03:19;3.93;;;3.40;;
12511;SDS011;6321;53.798;10.382;2023-07-09T07:05:45;4.70;;;3.10;;
12511;SDS011;6321;53.798;10.382;2023-07-09T07:08:13;5.67;;;3.27;;
12511;SDS011;6321;53.798;10.382;2023-07-09T07:10:40;3.57;;;3.27;;
12511;SDS011;6321;53.798;10.382;2023-07-09T07:13:06;3.50;;;3.20;;
12511;SDS011;6321;53.798;10.382;2023-07-09T07:15:32;3.57;;;3.27;;
12511;SDS011;6321;53.798;10.382;2023-07-09T07:17:58;4.37;;;3.53;;
12511;SDS011;6321;53.798;10.382;2023-07-09T07:20:24;4.07;;;3.67;;
12511;SDS011;6321;53.798;10.382;2023-07-09T07:22:50;5.60;;;3.40;;
12511;SDS011;6321;53.798;10.382;2023-07-09T07:25:16;3.47;;;3.17;;
12511;SDS011;6321;53.798;10.382;2023-07-09T07:27:42;4.10;;;3.80;;
12511;SDS011;6321;53.798;10.382;2023-07-09T07:30:08;3.97;;;3.37;;
12511;SDS011;6321;53.798;10.382;2023-07-09T07:32:35;4.03;;;3.40;;
12511;SDS011;6321;53.798;10.382;2023-07-09T07:35:02;4.83;;;3.57;;
12511;SDS011;6321;53.798;10.382;2023-07-09T07:37:28;5.77;;;3.30;;
12511;SDS011;6321;53.798;10.382;2023-07-09T07:39:54;4.47;;;3.17;;
12511;SDS011;6321;53.798;10.382;2023-07-09T07:42:19;3.77;;;3.33;;
12511;SDS011;6321;53.798;10.382;2023-07-09T07:44:45;4.53;;;3.80;;
12511;SDS011;6321;53.798;10.382;2023-07-09T07:47:11;4.07;;;3.67;;
12511;SDS011;6321;53.798;10.382;2023-07-09T07:49:37;3.80;;;3.27;;
12511;SDS011;6321;53.798;10.382;2023-07-09T07:52:04;4.27;;;3.53;;
12511;SDS011;6321;53.798;10.382;2023-07-09T07:54:30;3.73;;;3.43;;
12511;SDS011;6321;53.798;10.382;2023-07-09T07:56:56;4.03;;;3.57;;
12511;SDS011;6321;53.798;10.382;2023-07-09T07:59:23;4.10;;;3.77;;
12511;SDS011;6321;53.798;10.382;2023-07-09T08:01:49;5.90;;;3.07;;
12511;SDS011;6321;53.798;10.382;2023-07-09T08:04:15;4.37;;;3.57;;
12511;SDS011;6321;53.798;10.382;2023-07-09T08:06:41;3.57;;;3.27;;
12511;SDS011;6321;53.798;10.382;2023-07-09T08:09:07;4.30;;;3.30;;
12511;SDS011;6321;53.798;10.382;2023-07-09T08:11:33;4.90;;;3.67;;
12511;SDS011;6321;53.798;10.382;2023-07-09T08:13:59;3.80;;;3.50;;
12511;SDS011;6321;53.798;10.382;2023-07-09T08:16:25;3.90;;;3.60;;
12511;SDS011;6321;53.798;10.382;2023-07-09T08:18:51;4.73;;;4.30;;
12511;SDS011;6321;53.798;10.382;2023-07-09T08:21:17;3.83;;;3.53;;
12511;SDS011;6321;53.798;10.382;2023-07-09T08:23:44;4.77;;;3.70;;
12511;SDS011;6321;53.798;10.382;2023-07-09T08:26:10;3.73;;;3.43;;
12511;SDS011;6321;53.798;10.382;2023-07-09T08:28:37;4.40;;;3.70;;
12511;SDS011;6321;53.798;10.382;2023-07-09T08:31:03;6.50;;;3.33;;
12511;SDS011;6321;53.798;10.382;2023-07-09T08:33:29;4.23;;;3.43;;
12511;SDS011;6321;53.798;10.382;2023-07-09T08:35:55;6.00;;;3.80;;
12511;SDS011;6321;53.798;10.382;2023-07-09T08:38:21;3.40;;;3.10;;
12511;SDS011;6321;53.798;10.382;2023-07-09T08:40:50;3.97;;;2.90;;
12511;SDS011;6321;53.798;10.382;2023-07-09T08:43:22;3.90;;;3.60;;
12511;SDS011;6321;53.798;10.382;2023-07-09T08:46:00;6.00;;;4.07;;
12511;SDS011;6321;53.798;10.382;2023-07-09T08:48:35;4.93;;;3.70;;
12511;SDS011;6321;53.798;10.382;2023-07-09T08:51:09;3.93;;;3.60;;
12511;SDS011;6321;53.798;10.382;2023-07-09T08:53:38;3.83;;;3.53;;
12511;SDS011;6321;53.798;10.382;2023-07-09T08:56:06;3.80;;;3.50;;
12511;SDS011;6321;53.798;10.382;2023-07-09T08:58:33;5.87;;;4.23;;
12511;SDS011;6321;53.798;10.382;2023-07-09T09:01:01;4.20;;;3.80;;
12511;SDS011;6321;53.798;10.382;2023-07-09T09:03:29;4.13;;;3.80;;
12511;SDS011;6321;53.798;10.382;2023-07-09T09:05:59;4.73;;;3.60;;
12511;SDS011;6321;53.798;10.382;2023-07-09T09:08:46;4.30;;;3.90;;
12511;SDS011;6321;53.798;10.382;2023-07-09T09:11:31;6.30;;;3.57;;
12511;SDS011;6321;53.798;10.382;2023-07-09T09:14:01;5.50;;;3.80;;
12511;SDS011;6321;53.798;10.382;2023-07-09T09:16:35;6.77;;;3.40;;
12511;SDS011;6321;53.798;10.382;2023-07-09T09:19:03;4.97;;;3.97;;
12511;SDS011;6321;53.798;10.382;2023-07-09T09:21:34;4.90;;;4.00;;
12511;SDS011;6321;53.798;10.382;2023-07-09T09:24:13;6.00;;;4.00;;
12511;SDS011;6321;53.798;10.382;2023-07-09T09:26:41;7.40;;;3.90;;
12511;SDS011;6321;53.798;10.382;2023-07-09T09:29:12;4.33;;;3.93;;
12511;SDS011;6321;53.798;10.382;2023-07-09T09:31:38;4.47;;;3.60;;
12511;SDS011;6321;53.798;10.382;2023-07-09T09:34:04;4.70;;;3.70;;
12511;SDS011;6321;53.798;10.382;2023-07-09T09:36:30;6.80;;;4.47;;
12511;SDS011;6321;53.798;10.382;2023-07-09T09:39:01;4.70;;;4.30;;
12511;SDS011;6321;53.798;10.382;2023-07-09T09:41:36;4.50;;;4.10;;
12511;SDS011;6321;53.798;10.382;2023-07-09T09:44:02;4.03;;;3.73;;
12511;SDS011;6321;53.798;10.382;2023-07-09T09:46:30;4.87;;;3.90;;
12511;SDS011;6321;53.798;10.382;2023-07-09T09:49:00;4.40;;;3.60;;
12511;SDS011;6321;53.798;10.382;2023-07-09T09:51:26;4.50;;;4.10;;
12511;SDS011;6321;53.798;10.382;2023-07-09T09:53:55;5.97;;;3.73;;
12511;SDS011;6321;53.798;10.382;2023-07-09T09:56:27;4.70;;;4.20;;
12511;SDS011;6321;53.798;10.382;2023-07-09T09:58:54;4.30;;;3.90;;
12511;SDS011;6321;53.798;10.382;2023-07-09T10:01:22;6.80;;;4.53;;
12511;SDS011;6321;53.798;10.382;2023-07-09T10:03:51;4.20;;;3.90;;
12511;SDS011;6321;53.798;10.382;2023-07-09T10:06:23;4.17;;;3.87;;
12511;SDS011;6321;53.798;10.382;2023-07-09T10:08:54;4.73;;;4.20;;
12511;SDS011;6321;53.798;10.382;2023-07-09T10:11:24;4.50;;;4.10;;
12511;SDS011;6321;53.798;10.382;2023-07-09T10:13:52;4.38;;;3.95;;
12511;SDS011;6321;53.798;10.382;2023-07-09T10:16:23;4.73;;;4.33;;
12511;SDS011;6321;53.798;10.382;2023-07-09T10:18:59;4.95;;;4.45;;
12511;SDS011;6321;53.798;10.382;2023-07-09T10:21:37;4.75;;;4.35;;
12511;SDS011;6321;53.798;10.382;2023-07-09T10:26:44;5.90;;;3.90;;
12511;SDS011;6321;53.798;10.382;2023-07-09T10:29:24;4.00;;;3.70;;
12511;SDS011;6321;53.798;10.382;2023-07-09T10:32:57;8.05;;;4.60;;
12511;SDS011;6321;53.798;10.382;2023-07-09T10:37:29;7.30;;;4.15;;
12511;SDS011;6321;53.798;10.382;2023-07-09T10:39:59;4.73;;;4.20;;
12511;SDS011;6321;53.798;10.382;2023-07-09T10:42:30;4.57;;;3.88;;
12511;SDS011;6321;53.798;10.382;2023-07-09T10:44:58;4.75;;;4.20;;
12511;SDS011;6321;53.798;10.382;2023-07-09T10:47:34;5.07;;;4.10;;
12511;SDS011;6321;53.798;10.382;2023-07-09T10:50:01;4.90;;;4.50;;
12511;SDS011;6321;53.798;10.382;2023-07-09T10:52:30;4.22;;;3.83;;
12511;SDS011;6321;53.798;10.382;2023-07-09T10:57:39;6.65;;;4.60;;
12511;SDS011;6321;53.798;10.382;2023-07-09T11:00:11;5.93;;;4.25;;
12511;SDS011;6321;53.798;10.382;2023-07-09T11:02:38;5.43;;;4.53;;
12511;SDS011;6321;53.798;10.382;2023-07-09T11:05:05;6.13;;;5.38;;
12511;SDS011;6321;53.798;10.382;2023-07-09T11:10:01;5.22;;;4.72;;
12511;SDS011;6321;53.798;10.382;2023-07-09T11:12:36;10.77;;;4.65;;
12511;SDS011;6321;53.798;10.382;2023-07-09T11:15:06;6.05;;;5.50;;
12511;SDS011;6321;53.798;10.382;2023-07-09T11:17:35;6.07;;;4.75;;
12511;SDS011;6321;53.798;10.382;2023-07-09T11:20:06;5.93;;;5.07;;
12511;SDS011;6321;53.798;10.382;2023-07-09T11:22:37;4.97;;;4.22;;
12511;SDS011;6321;53.798;10.382;2023-07-09T11:25:08;5.97;;;5.15;;
12511;SDS011;6321;53.798;10.382;2023-07-09T11:27:45;5.50;;;4.95;;
12511;SDS011;6321;53.798;10.382;2023-07-09T11:33:15;5.22;;;4.72;;
12511;SDS011;6321;53.798;10.382;2023-07-09T11:35:46;7.38;;;5.05;;
12511;SDS011;6321;53.798;10.382;2023-07-09T11:38:15;5.55;;;4.82;;
12511;SDS011;6321;53.798;10.382;2023-07-09T11:41:00;5.20;;;4.80;;
12511;SDS011;6321;53.798;10.382;2023-07-09T11:43:33;6.55;;;4.78;;
12511;SDS011;6321;53.798;10.382;2023-07-09T11:46:03;6.38;;;4.53;;
12511;SDS011;6321;53.798;10.382;2023-07-09T11:48:32;5.95;;;4.95;;
12511;SDS011;6321;53.798;10.382;2023-07-09T11:51:00;5.95;;;5.03;;
12511;SDS011;6321;53.798;10.382;2023-07-09T11:55:55;5.78;;;5.28;;
12511;SDS011;6321;53.798;10.382;2023-07-09T11:58:21;5.60;;;4.88;;
12511;SDS011;6321;53.798;10.382;2023-07-09T12:00:51;5.78;;;5.00;;
12511;SDS011;6321;53.798;10.382;2023-07-09T12:03:22;9.20;;;5.15;;
12511;SDS011;6321;53.798;10.382;2023-07-09T12:05:52;4.63;;;4.22;;
12511;SDS011;6321;53.798;10.382;2023-07-09T12:08:21;5.72;;;5.32;;
12511;SDS011;6321;53.798;10.382;2023-07-09T12:10:49;5.78;;;5.38;;
12511;SDS011;6321;53.798;10.382;2023-07-09T12:13:15;8.55;;;5.20;;
12511;SDS011;6321;53.798;10.382;2023-07-09T12:15:41;5.72;;;5.05;;
12511;SDS011;6321;53.798;10.382;2023-07-09T12:18:12;5.85;;;5.28;;
12511;SDS011;6321;53.798;10.382;2023-07-09T12:20:38;5.10;;;4.60;;
12511;SDS011;6321;53.798;10.382;2023-07-09T12:23:19;5.22;;;4.82;;
12511;SDS011;6321;53.798;10.382;2023-07-09T12:25:49;6.13;;;5.53;;
12511;SDS011;6321;53.798;10.382;2023-07-09T12:28:16;5.45;;;5.05;;
12511;SDS011;6321;53.798;10.382;2023-07-09T12:30:49;10.05;;;4.90;;
12511;SDS011;6321;53.798;10.382;2023-07-09T12:33:16;6.20;;;5.25;;
12511;SDS011;6321;53.798;10.382;2023-07-09T12:35:42;5.57;;;5.07;;
12511;SDS011;6321;53.798;10.382;2023-07-09T12:38:15;5.32;;;4.85;;
12511;SDS011;6321;53.798;10.382;2023-07-09T12:40:42;6.32;;;5.43;;
12511;SDS011;6321;53.798;10.382;2023-07-09T12:43:09;6.60;;;5.15;;
12511;SDS011;6321;53.798;10.382;2023-07-09T12:45:35;5.90;;;5.30;;
12511;SDS011;6321;53.798;10.382;2023-07-09T12:48:01;6.18;;;5.55;;
12511;SDS011;6321;53.798;10.382;2023-07-09T12:50:31;5.60;;;5.10;;
12511;SDS011;6321;53.798;10.382;2023-07-09T12:53:01;5.63;;;4.97;;
12511;SDS011;6321;53.798;10.382;2023-07-09T12:55:28;8.68;;;5.55;;
12511;SDS011;6321;53.798;10.382;2023-07-09T12:57:57;6.25;;;5.25;;
12511;SDS011;6321;53.798;10.382;2023-07-09T13:00:29;5.78;;;5.20;;
12511;SDS011;6321;53.798;10.382;2023-07-09T13:02:56;5.90;;;5.25;;
12511;SDS011;6321;53.798;10.382;2023-07-09T13:05:23;5.97;;;5.38;;
12511;SDS011;6321;53.798;10.382;2023-07-09T13:07:50;6.47;;;5.80;;
12511;SDS011;6321;53.798;10.382;2023-07-09T13:10:22;8.63;;;5.90;;
12511;SDS011;6321;53.798;10.382;2023-07-09T13:12:51;8.00;;;5.68;;
12511;SDS011;6321;53.798;10.382;2023-07-09T13:18:03;6.00;;;5.50;;
12511;SDS011;6321;53.798;10.382;2023-07-09T13:20:30;6.15;;;5.55;;
12511;SDS011;6321;53.798;10.382;2023-07-09T13:22:56;7.30;;;5.75;;
12511;SDS011;6321;53.798;10.382;2023-07-09T13:25:22;7.07;;;6.47;;
12511;SDS011;6321;53.798;10.382;2023-07-09T13:27:48;6.85;;;6.35;;
12511;SDS011;6321;53.798;10.382;2023-07-09T13:30:14;7.93;;;6.82;;
12511;SDS011;6321;53.798;10.382;2023-07-09T13:32:40;6.95;;;6.35;;
12511;SDS011;6321;53.798;10.382;2023-07-09T13:35:13;7.05;;;6.45;;
12511;SDS011;6321;53.798;10.382;2023-07-09T13:37:40;8.38;;;7.03;;
12511;SDS011;6321;53.798;10.382;2023-07-09T13:40:07;6.95;;;6.45;;
12511;SDS011;6321;53.798;10.382;2023-07-09T13:42:34;6.78;;;6.18;;
12511;SDS011;6321;53.798;10.382;2023-07-09T13:45:00;7.30;;;6.63;;
12511;SDS011;6321;53.798;10.382;2023-07-09T13:47:26;8.45;;;7.07;;
12511;SDS011;6321;53.798;10.382;2023-07-09T13:49:52;7.10;;;6.50;;
12511;SDS011;6321;53.798;10.382;2023-07-09T13:52:19;7.28;;;6.68;;
12511;SDS011;6321;53.798;10.382;2023-07-09T13:54:45;7.22;;;6.55;;
12511;SDS011;6321;53.798;10.382;2023-07-09T13:57:16;9.75;;;6.68;;
12511;SDS011;6321;53.798;10.382;2023-07-09T13:59:42;8.30;;;6.15;;
12511;SDS011;6321;53.798;10.382;2023-07-09T14:02:19;6.90;;;6.15;;
12511;SDS011;6321;53.798;10.382;2023-07-09T14:04:46;6.63;;;5.85;;
12511;SDS011;6321;53.798;10.382;2023-07-09T14:07:19;6.93;;;5.93;;
12511;SDS011;6321;53.798;10.382;2023-07-09T14:09:48;6.90;;;5.88;;
12511;SDS011;6321;53.798;10.382;2023-07-09T14:12:14;7.60;;;5.75;;
12511;SDS011;6321;53.798;10.382;2023-07-09T14:14:40;8.63;;;6.10;;
12511;SDS011;6321;53.798;10.382;2023-07-09T14:17:11;6.47;;;5.97;;
12511;SDS011;6321;53.798;10.382;2023-07-09T14:19:38;6.30;;;5.80;;
12511;SDS011;6321;53.798;10.382;2023-07-09T14:22:07;6.10;;;5.55;;
12511;SDS011;6321;53.798;10.382;2023-07-09T14:24:41;6.18;;;5.65;;
12511;SDS011;6321;53.798;10.382;2023-07-09T14:27:07;6.30;;;5.70;;
12511;SDS011;6321;53.798;10.382;2023-07-09T14:29:34;5.57;;;5.18;;
12511;SDS011;6321;53.798;10.382;2023-07-09T14:32:00;5.60;;;5.20;;
12511;SDS011;6321;53.798;10.382;2023-07-09T14:34:27;5.95;;;5.13;;
12511;SDS011;6321;53.798;10.382;2023-07-09T14:36:54;6.63;;;5.93;;
12511;SDS011;6321;53.798;10.382;2023-07-09T14:39:21;6.68;;;4.78;;
12511;SDS011;6321;53.798;10.382;2023-07-09T14:41:47;6.32;;;4.45;;
12511;SDS011;6321;53.798;10.382;2023-07-09T14:44:22;6.18;;;5.20;;
12511;SDS011;6321;53.798;10.382;2023-07-09T14:46:49;6.05;;;4.20;;
12511;SDS011;6321;53.798;10.382;2023-07-09T14:49:15;6.03;;;4.20;;
12511;SDS011;6321;53.798;10.382;2023-07-09T14:51:41;5.05;;;4.63;;
12511;SDS011;6321;53.798;10.382;2023-07-09T14:54:10;4.00;;;3.60;;
12511;SDS011;6321;53.798;10.382;2023-07-09T14:56:43;6.05;;;4.30;;
12511;SDS011;6321;53.798;10.382;2023-07-09T14:59:08;6.72;;;4.43;;
12511;SDS011;6321;53.798;10.382;2023-07-09T15:01:34;7.13;;;4.60;;
12511;SDS011;6321;53.798;10.382;2023-07-09T15:04:05;5.75;;;4.43;;
12511;SDS011;6321;53.798;10.382;2023-07-09T15:06:33;5.22;;;4.72;;
12511;SDS011;6321;53.798;10.382;2023-07-09T15:08:59;7.22;;;4.10;;
12511;SDS011;6321;53.798;10.382;2023-07-09T15:11:24;9.07;;;5.97;;